Accueil
METAR-TAF:

METAR-TAF

Aéroports :

Aéroport de Longyearbyen

Longyearbyen, Norvège

latitude: 78-15N, longitude: 015-28E, altitude: 2 m

Observation

Le bulletin a été fait il y a 9 minutes, à 03:50 UTC
Vent 8 kt de ouest/sud-ouest
Température 0°C
Humidité 86%
Pression 1011 hPa
Visibilité: 7000 m
pluie faible, neige

METAR: ENSB 120350Z 25008KT 7000 -RASN VV017 00/M02 Q1011 RMK WIND 1400FT 24018KT

Heure: 04:59 (03:59 UTC)

Prévision

Prévision valable du 12 à 00 UTC au 12 à 24 UTC
Vent 15 kt de sud-ouest
Visibilité 10 km ou plus
Quelques nuages à une hauteur de 1000 ft
Nuages fragmentés à une hauteur de 3000 ft
Temporairement
du 12 à 00 UTC au 12 à 24 UTC
Vent 8 kt de direction variable
Visibilité: 2500 m
à une hauteur de 900 ft
faibles averses de neige, pluie

TAF: ENSB 1200/1224 23015KT 9999 FEW010 BKN030 TEMPO 1200/1224 VRB08KT 2500 -SHSNRA VV009

Observations et prévisions météorologiques de plus de 4000 aéroports (messages METAR et TAF).

Les stations disponibles sont représentées par des disques jaunes et rouges sur la carte.

Passer la souris dessus pour voir le nom de la station.

Cliquer dessus pour voir les observations et prévisions météorologiques.

Pour changer de carte: cliquez sur les boutons verts avec une croix noire pour zoomer, sur le bouton vert avec un tiret pour effectuer un zoom arrière, ou sur les flèches vertes pour les cartes adjacentes.


METAR-TAF: